Aviation Digital Data Service (ADDS)

Output produced by TAFs form (1500 UTC 03 March 2015)
found at http://aviationweather.gov/adds/tafs/
 
KMAF 031137Z 0312/0412 18009KT 2SM BR OVC010 
     TEMPO 0312/0316 1/2SM FG OVC001 
     FM031600 21008KT P6SM SCT040 BKN100 
     FM032300 VRB05KT P6SM BKN050 OVC100 
     TEMPO 0400/0404 6SM SHRA BR OVC035